sensor_id;sensor_type;location;lat;lon;timestamp;pressure;altitude;pressure_sealevel;temperature;humidity
41062;BME280;26812;42.662;23.352;2023-02-12T00:00:29;95835.75;;;1.90;38.73
41062;BME280;26812;42.662;23.352;2023-02-12T00:02:55;95819.16;;;1.99;39.55
41062;BME280;26812;42.662;23.352;2023-02-12T00:05:20;95837.28;;;2.36;38.06
41062;BME280;26812;42.662;23.352;2023-02-12T00:07:46;95856.75;;;2.75;37.24
41062;BME280;26812;42.662;23.352;2023-02-12T00:10:11;95846.16;;;2.58;38.15
41062;BME280;26812;42.662;23.352;2023-02-12T00:12:37;95863.72;;;2.42;38.87
41062;BME280;26812;42.662;23.352;2023-02-12T00:15:03;95845.50;;;1.84;38.63
41062;BME280;26812;42.662;23.352;2023-02-12T00:17:28;95867.59;;;2.18;39.30
41062;BME280;26812;42.662;23.352;2023-02-12T00:19:54;95851.25;;;2.26;39.32
41062;BME280;26812;42.662;23.352;2023-02-12T00:22:19;95857.59;;;2.42;37.90
41062;BME280;26812;42.662;23.352;2023-02-12T00:24:44;95844.38;;;2.13;37.77
41062;BME280;26812;42.662;23.352;2023-02-12T00:27:10;95850.81;;;2.01;38.36
41062;BME280;26812;42.662;23.352;2023-02-12T00:29:36;95836.47;;;2.02;37.76
41062;BME280;26812;42.662;23.352;2023-02-12T00:32:08;95864.22;;;2.23;38.84
41062;BME280;26812;42.662;23.352;2023-02-12T00:34:34;95838.81;;;2.32;38.09
41062;BME280;26812;42.662;23.352;2023-02-12T00:36:59;95818.78;;;2.24;37.72
41062;BME280;26812;42.662;23.352;2023-02-12T00:39:25;95836.63;;;2.12;38.09
41062;BME280;26812;42.662;23.352;2023-02-12T00:41:50;95814.41;;;2.01;38.43
41062;BME280;26812;42.662;23.352;2023-02-12T00:44:16;95816.00;;;2.36;37.50
41062;BME280;26812;42.662;23.352;2023-02-12T00:46:41;95829.88;;;2.55;37.32
41062;BME280;26812;42.662;23.352;2023-02-12T00:49:07;95809.34;;;2.33;37.45
41062;BME280;26812;42.662;23.352;2023-02-12T00:51:32;95824.56;;;2.38;38.07
41062;BME280;26812;42.662;23.352;2023-02-12T00:53:57;95816.03;;;2.19;37.87
41062;BME280;26812;42.662;23.352;2023-02-12T00:56:23;95813.44;;;2.24;38.03
41062;BME280;26812;42.662;23.352;2023-02-12T00:58:48;95800.00;;;2.31;38.08
41062;BME280;26812;42.662;23.352;2023-02-12T01:01:15;95803.06;;;2.23;37.84
41062;BME280;26812;42.662;23.352;2023-02-12T01:03:40;95812.88;;;2.39;37.84
41062;BME280;26812;42.662;23.352;2023-02-12T01:06:06;95805.78;;;2.28;37.63
41062;BME280;26812;42.662;23.352;2023-02-12T01:08:31;95788.88;;;2.17;38.48
41062;BME280;26812;42.662;23.352;2023-02-12T01:10:59;95820.91;;;2.44;38.41
41062;BME280;26812;42.662;23.352;2023-02-12T01:13:25;95801.09;;;2.35;37.88
41062;BME280;26812;42.662;23.352;2023-02-12T01:16:05;95819.78;;;2.57;38.31
41062;BME280;26812;42.662;23.352;2023-02-12T01:18:34;95812.13;;;2.60;38.25
41062;BME280;26812;42.662;23.352;2023-02-12T01:20:59;95793.88;;;2.30;37.72
41062;BME280;26812;42.662;23.352;2023-02-12T01:23:26;95811.69;;;2.46;38.30
41062;BME280;26812;42.662;23.352;2023-02-12T01:25:51;95824.44;;;2.66;37.76
41062;BME280;26812;42.662;23.352;2023-02-12T01:28:17;95825.81;;;2.69;38.29
41062;BME280;26812;42.662;23.352;2023-02-12T01:30:43;95826.94;;;2.73;37.80
41062;BME280;26812;42.662;23.352;2023-02-12T01:33:08;95816.00;;;2.53;38.13
41062;BME280;26812;42.662;23.352;2023-02-12T01:35:36;95804.25;;;2.48;38.54
41062;BME280;26812;42.662;23.352;2023-02-12T01:38:01;95826.78;;;2.63;38.23
41062;BME280;26812;42.662;23.352;2023-02-12T01:40:27;95818.84;;;2.12;38.46
41062;BME280;26812;42.662;23.352;2023-02-12T01:42:52;95801.78;;;2.25;39.26
41062;BME280;26812;42.662;23.352;2023-02-12T01:47:46;95815.84;;;2.42;38.86
41062;BME280;26812;42.662;23.352;2023-02-12T01:50:14;95782.75;;;2.16;39.09
41062;BME280;26812;42.662;23.352;2023-02-12T01:52:45;95799.56;;;2.39;38.90
41062;BME280;26812;42.662;23.352;2023-02-12T01:55:12;95796.88;;;2.17;39.11
41062;BME280;26812;42.662;23.352;2023-02-12T01:57:41;95766.81;;;2.00;39.29
41062;BME280;26812;42.662;23.352;2023-02-12T02:00:11;95786.06;;;2.24;38.66
41062;BME280;26812;42.662;23.352;2023-02-12T02:02:38;95790.66;;;2.28;39.33
41062;BME280;26812;42.662;23.352;2023-02-12T02:05:04;95791.59;;;2.39;39.20
41062;BME280;26812;42.662;23.352;2023-02-12T02:07:30;95804.47;;;2.64;39.21
41062;BME280;26812;42.662;23.352;2023-02-12T02:09:57;95808.53;;;2.71;38.39
41062;BME280;26812;42.662;23.352;2023-02-12T02:12:24;95780.63;;;2.52;38.44
41062;BME280;26812;42.662;23.352;2023-02-12T02:15:08;95795.59;;;2.58;38.30
41062;BME280;26812;42.662;23.352;2023-02-12T02:17:45;95763.63;;;2.36;38.37
41062;BME280;26812;42.662;23.352;2023-02-12T02:32:06;95786.22;;;2.17;40.73
41062;BME280;26812;42.662;23.352;2023-02-12T02:37:33;95789.00;;;1.77;41.61
41062;BME280;26812;42.662;23.352;2023-02-12T02:42:32;95786.19;;;1.67;41.59
41062;BME280;26812;42.662;23.352;2023-02-12T02:45:07;95790.53;;;1.73;41.87
41062;BME280;26812;42.662;23.352;2023-02-12T02:47:48;95793.03;;;1.79;41.75
41062;BME280;26812;42.662;23.352;2023-02-12T02:50:17;95791.84;;;1.87;42.08
41062;BME280;26812;42.662;23.352;2023-02-12T02:55:24;95793.47;;;2.05;41.89
41062;BME280;26812;42.662;23.352;2023-02-12T02:57:52;95802.41;;;1.99;41.65
41062;BME280;26812;42.662;23.352;2023-02-12T03:00:54;95796.88;;;2.17;41.05
41062;BME280;26812;42.662;23.352;2023-02-12T03:03:27;95810.47;;;2.21;41.63
41062;BME280;26812;42.662;23.352;2023-02-12T03:06:02;95806.22;;;2.20;41.08
41062;BME280;26812;42.662;23.352;2023-02-12T03:08:31;95807.66;;;2.27;40.78
41062;BME280;26812;42.662;23.352;2023-02-12T03:11:04;95787.72;;;2.13;41.93
41062;BME280;26812;42.662;23.352;2023-02-12T03:13:37;95802.66;;;2.31;41.67
41062;BME280;26812;42.662;23.352;2023-02-12T03:16:11;95781.69;;;2.34;41.06
41062;BME280;26812;42.662;23.352;2023-02-12T03:18:42;95758.34;;;2.20;41.50
41062;BME280;26812;42.662;23.352;2023-02-12T03:21:13;95795.72;;;2.46;41.13
41062;BME280;26812;42.662;23.352;2023-02-12T03:26:19;95758.91;;;2.22;41.62
41062;BME280;26812;42.662;23.352;2023-02-12T03:28:46;95755.38;;;2.16;41.99
41062;BME280;26812;42.662;23.352;2023-02-12T03:31:50;95787.25;;;2.33;42.27
41062;BME280;26812;42.662;23.352;2023-02-12T03:34:33;95733.44;;;2.09;41.79
41062;BME280;26812;42.662;23.352;2023-02-12T03:38:02;95792.09;;;2.36;42.13
41062;BME280;26812;42.662;23.352;2023-02-12T03:40:14;95786.22;;;2.17;42.70
41062;BME280;26812;42.662;23.352;2023-02-12T03:45:49;95799.91;;;1.92;43.72
41062;BME280;26812;42.662;23.352;2023-02-12T03:50:59;95788.84;;;2.34;42.70
41062;BME280;26812;42.662;23.352;2023-02-12T03:53:28;95786.59;;;2.42;42.40
41062;BME280;26812;42.662;23.352;2023-02-12T03:56:02;95787.16;;;2.44;41.88
41062;BME280;26812;42.662;23.352;2023-02-12T03:58:33;95796.19;;;2.43;42.21
41062;BME280;26812;42.662;23.352;2023-02-12T04:01:00;95780.88;;;2.34;42.03
41062;BME280;26812;42.662;23.352;2023-02-12T04:03:27;95785.22;;;2.40;42.16
41062;BME280;26812;42.662;23.352;2023-02-12T04:05:53;95751.44;;;2.18;43.12
41062;BME280;26812;42.662;23.352;2023-02-12T04:08:19;95775.41;;;2.24;43.11
41062;BME280;26812;42.662;23.352;2023-02-12T04:13:47;95785.41;;;2.33;42.63
41062;BME280;26812;42.662;23.352;2023-02-12T04:16:35;95773.75;;;2.17;43.28
41062;BME280;26812;42.662;23.352;2023-02-12T04:19:04;95764.28;;;2.10;43.16
41062;BME280;26812;42.662;23.352;2023-02-12T04:24:17;95804.97;;;2.44;42.93
41062;BME280;26812;42.662;23.352;2023-02-12T04:26:57;95811.25;;;2.38;43.45
41062;BME280;26812;42.662;23.352;2023-02-12T04:32:27;95769.78;;;2.20;43.16
41062;BME280;26812;42.662;23.352;2023-02-12T04:34:56;95814.56;;;2.45;42.71
41062;BME280;26812;42.662;23.352;2023-02-12T04:37:32;95817.25;;;2.45;43.21
41062;BME280;26812;42.662;23.352;2023-02-12T04:40:04;95803.84;;;2.40;42.69
41062;BME280;26812;42.662;23.352;2023-02-12T04:42:30;95813.66;;;2.39;42.63
41062;BME280;26812;42.662;23.352;2023-02-12T04:44:55;95806.44;;;2.35;42.77
41062;BME280;26812;42.662;23.352;2023-02-12T04:47:21;95815.44;;;2.34;43.19
41062;BME280;26812;42.662;23.352;2023-02-12T04:49:46;95797.09;;;2.15;43.01
41062;BME280;26812;42.662;23.352;2023-02-12T04:52:11;95814.00;;;2.26;43.24
41062;BME280;26812;42.662;23.352;2023-02-12T04:54:37;95779.75;;;2.13;42.92
41062;BME280;26812;42.662;23.352;2023-02-12T04:57:02;95799.75;;;2.32;43.16
41062;BME280;26812;42.662;23.352;2023-02-12T04:59:28;95800.72;;;2.26;43.05
41062;BME280;26812;42.662;23.352;2023-02-12T05:01:53;95815.78;;;2.37;42.80
41062;BME280;26812;42.662;23.352;2023-02-12T05:04:19;95816.34;;;2.39;43.07
41062;BME280;26812;42.662;23.352;2023-02-12T05:06:45;95818.84;;;2.46;43.47
41062;BME280;26812;42.662;23.352;2023-02-12T05:09:14;95793.78;;;2.25;43.06
41062;BME280;26812;42.662;23.352;2023-02-12T05:11:40;95818.13;;;2.34;43.91
41062;BME280;26812;42.662;23.352;2023-02-12T05:14:06;95824.47;;;2.49;44.22
41062;BME280;26812;42.662;23.352;2023-02-12T05:16:31;95827.47;;;2.20;44.27
41062;BME280;26812;42.662;23.352;2023-02-12T05:18:57;95783.63;;;2.05;44.52
41062;BME280;26812;42.662;23.352;2023-02-12T05:21:22;95819.09;;;2.28;44.35
41062;BME280;26812;42.662;23.352;2023-02-12T05:23:48;95845.03;;;2.21;44.42
41062;BME280;26812;42.662;23.352;2023-02-12T05:26:16;95852.59;;;1.95;44.60
41062;BME280;26812;42.662;23.352;2023-02-12T05:28:41;95840.28;;;1.77;45.85
41062;BME280;26812;42.662;23.352;2023-02-12T05:31:09;95845.84;;;1.76;46.69
41062;BME280;26812;42.662;23.352;2023-02-12T05:33:34;95863.47;;;2.10;47.00
41062;BME280;26812;42.662;23.352;2023-02-12T05:36:08;95853.97;;;2.14;46.57
41062;BME280;26812;42.662;23.352;2023-02-12T05:38:34;95851.81;;;1.83;45.88
41062;BME280;26812;42.662;23.352;2023-02-12T05:43:28;95860.03;;;1.81;46.62
41062;BME280;26812;42.662;23.352;2023-02-12T05:45:53;95855.00;;;1.97;46.58
41062;BME280;26812;42.662;23.352;2023-02-12T05:48:19;95830.44;;;1.90;47.47
41062;BME280;26812;42.662;23.352;2023-02-12T05:50:44;95850.66;;;1.91;47.99
41062;BME280;26812;42.662;23.352;2023-02-12T05:53:10;95884.28;;;1.57;50.84
41062;BME280;26812;42.662;23.352;2023-02-12T05:55:35;95849.03;;;1.61;50.58
41062;BME280;26812;42.662;23.352;2023-02-12T05:58:00;95879.00;;;2.02;49.46
41062;BME280;26812;42.662;23.352;2023-02-12T06:00:26;95878.38;;;2.11;49.95
41062;BME280;26812;42.662;23.352;2023-02-12T06:02:51;95858.09;;;2.22;49.29
41062;BME280;26812;42.662;23.352;2023-02-12T06:05:17;95872.16;;;1.89;50.01
41062;BME280;26812;42.662;23.352;2023-02-12T06:07:42;95878.94;;;1.68;50.97
41062;BME280;26812;42.662;23.352;2023-02-12T06:10:08;95870.97;;;1.68;51.39
41062;BME280;26812;42.662;23.352;2023-02-12T06:12:33;95840.06;;;1.50;51.76
41062;BME280;26812;42.662;23.352;2023-02-12T06:14:59;95853.66;;;1.66;52.43
41062;BME280;26812;42.662;23.352;2023-02-12T06:17:24;95858.97;;;1.66;52.09
41062;BME280;26812;42.662;23.352;2023-02-12T06:19:49;95874.16;;;1.53;52.79
41062;BME280;26812;42.662;23.352;2023-02-12T06:22:15;95881.75;;;1.50;53.53
41062;BME280;26812;42.662;23.352;2023-02-12T06:24:40;95885.94;;;1.74;53.95
41062;BME280;26812;42.662;23.352;2023-02-12T06:27:05;95869.59;;;1.66;54.76
41062;BME280;26812;42.662;23.352;2023-02-12T06:29:31;95866.31;;;1.75;54.52
41062;BME280;26812;42.662;23.352;2023-02-12T06:31:56;95893.97;;;1.91;54.87
41062;BME280;26812;42.662;23.352;2023-02-12T06:34:22;95893.44;;;1.77;55.93
41062;BME280;26812;42.662;23.352;2023-02-12T06:36:47;95892.88;;;1.75;56.29
41062;BME280;26812;42.662;23.352;2023-02-12T06:39:14;95907.16;;;1.46;58.14
41062;BME280;26812;42.662;23.352;2023-02-12T06:41:41;95908.72;;;1.30;60.27
41062;BME280;26812;42.662;23.352;2023-02-12T06:44:07;95906.06;;;1.18;60.53
41062;BME280;26812;42.662;23.352;2023-02-12T06:46:33;95899.03;;;1.24;60.62
41062;BME280;26812;42.662;23.352;2023-02-12T06:48:59;95896.00;;;1.32;61.09
41062;BME280;26812;42.662;23.352;2023-02-12T06:51:26;95898.31;;;1.40;61.11
41062;BME280;26812;42.662;23.352;2023-02-12T06:53:54;95888.72;;;1.39;60.88
41062;BME280;26812;42.662;23.352;2023-02-12T06:56:21;95890.59;;;1.27;61.63
41062;BME280;26812;42.662;23.352;2023-02-12T06:58:52;95893.41;;;1.49;61.43
41062;BME280;26812;42.662;23.352;2023-02-12T07:01:20;95893.00;;;1.40;61.07
41062;BME280;26812;42.662;23.352;2023-02-12T07:03:48;95900.81;;;1.59;60.77
41062;BME280;26812;42.662;23.352;2023-02-12T07:06:14;95894.72;;;1.75;59.89
41062;BME280;26812;42.662;23.352;2023-02-12T07:08:39;95896.00;;;1.72;60.27
41062;BME280;26812;42.662;23.352;2023-02-12T07:11:05;95878.63;;;1.53;60.26
41062;BME280;26812;42.662;23.352;2023-02-12T07:13:31;95896.59;;;1.34;60.86
41062;BME280;26812;42.662;23.352;2023-02-12T07:16:05;95889.63;;;1.45;60.72
41062;BME280;26812;42.662;23.352;2023-02-12T07:18:30;95906.13;;;1.59;60.54
41062;BME280;26812;42.662;23.352;2023-02-12T07:20:56;95911.78;;;1.79;60.34
41062;BME280;26812;42.662;23.352;2023-02-12T07:23:21;95912.00;;;1.89;59.84
41062;BME280;26812;42.662;23.352;2023-02-12T07:26:01;95905.09;;;2.05;58.85
41062;BME280;26812;42.662;23.352;2023-02-12T07:28:27;95854.81;;;1.86;58.72
41062;BME280;26812;42.662;23.352;2023-02-12T07:30:53;95886.84;;;1.80;59.91
41062;BME280;26812;42.662;23.352;2023-02-12T07:33:19;95894.56;;;1.81;59.51
41062;BME280;26812;42.662;23.352;2023-02-12T07:35:45;95909.91;;;1.91;59.64
41062;BME280;26812;42.662;23.352;2023-02-12T07:38:11;95918.03;;;1.84;60.37
41062;BME280;26812;42.662;23.352;2023-02-12T07:40:37;95900.34;;;2.07;59.82
41062;BME280;26812;42.662;23.352;2023-02-12T07:43:16;95920.97;;;2.00;59.59
41062;BME280;26812;42.662;23.352;2023-02-12T07:45:41;95896.00;;;1.72;59.68
41062;BME280;26812;42.662;23.352;2023-02-12T07:48:07;95927.59;;;2.14;59.45
41062;BME280;26812;42.662;23.352;2023-02-12T07:50:32;95925.75;;;2.14;58.86
41062;BME280;26812;42.662;23.352;2023-02-12T07:52:58;95919.03;;;1.95;59.43
41062;BME280;26812;42.662;23.352;2023-02-12T07:55:23;95908.22;;;1.85;60.52
41062;BME280;26812;42.662;23.352;2023-02-12T07:57:48;95914.56;;;1.84;60.00
41062;BME280;26812;42.662;23.352;2023-02-12T08:00:14;95924.38;;;1.83;60.43
41062;BME280;26812;42.662;23.352;2023-02-12T08:02:40;95898.25;;;1.52;61.29
41062;BME280;26812;42.662;23.352;2023-02-12T08:05:05;95891.38;;;1.39;61.72
41062;BME280;26812;42.662;23.352;2023-02-12T08:07:31;95916.63;;;1.82;61.13
41062;BME280;26812;42.662;23.352;2023-02-12T08:09:56;95931.97;;;1.51;62.01
41062;BME280;26812;42.662;23.352;2023-02-12T08:12:22;95914.31;;;1.45;62.40
41062;BME280;26812;42.662;23.352;2023-02-12T08:14:48;95893.94;;;1.34;64.03
41062;BME280;26812;42.662;23.352;2023-02-12T08:17:13;95924.16;;;1.45;63.72
41062;BME280;26812;42.662;23.352;2023-02-12T08:19:39;95913.84;;;1.60;63.14
41062;BME280;26812;42.662;23.352;2023-02-12T08:22:11;95925.78;;;1.86;61.95
41062;BME280;26812;42.662;23.352;2023-02-12T08:24:37;95925.06;;;1.50;62.35
41062;BME280;26812;42.662;23.352;2023-02-12T08:27:04;95909.53;;;1.19;62.56
41062;BME280;26812;42.662;23.352;2023-02-12T08:29:29;95955.31;;;1.49;63.38
41062;BME280;26812;42.662;23.352;2023-02-12T08:32:00;95955.97;;;1.68;63.20
41062;BME280;26812;42.662;23.352;2023-02-12T08:34:28;95951.06;;;1.89;62.05
41062;BME280;26812;42.662;23.352;2023-02-12T08:36:57;95943.06;;;1.60;62.67
41062;BME280;26812;42.662;23.352;2023-02-12T08:39:24;95945.47;;;1.62;63.00
41062;BME280;26812;42.662;23.352;2023-02-12T08:41:50;95960.34;;;1.74;62.61
41062;BME280;26812;42.662;23.352;2023-02-12T08:44:17;95943.31;;;1.87;61.55
41062;BME280;26812;42.662;23.352;2023-02-12T08:46:45;95973.22;;;1.94;61.68
41062;BME280;26812;42.662;23.352;2023-02-12T08:49:16;95945.56;;;1.67;63.06
41062;BME280;26812;42.662;23.352;2023-02-12T08:51:45;95974.06;;;2.11;61.80
41062;BME280;26812;42.662;23.352;2023-02-12T08:54:24;95970.91;;;1.98;62.69
41062;BME280;26812;42.662;23.352;2023-02-12T08:57:10;95929.88;;;2.22;61.64
41062;BME280;26812;42.662;23.352;2023-02-12T08:59:35;95976.19;;;3.05;59.18
41062;BME280;26812;42.662;23.352;2023-02-12T09:02:04;95937.25;;;3.37;60.53
41062;BME280;26812;42.662;23.352;2023-02-12T09:04:41;95989.63;;;4.36;56.27
41062;BME280;26812;42.662;23.352;2023-02-12T09:07:13;95932.50;;;3.39;55.17
41062;BME280;26812;42.662;23.352;2023-02-12T09:09:48;95951.09;;;3.01;57.73
41062;BME280;26812;42.662;23.352;2023-02-12T09:12:16;95955.63;;;2.50;59.21
41062;BME280;26812;42.662;23.352;2023-02-12T09:14:45;95978.78;;;2.66;60.12
41062;BME280;26812;42.662;23.352;2023-02-12T09:17:12;96002.75;;;2.83;59.70
41062;BME280;26812;42.662;23.352;2023-02-12T09:19:37;95972.41;;;2.51;60.39
41062;BME280;26812;42.662;23.352;2023-02-12T09:22:03;95976.81;;;2.45;60.76
41062;BME280;26812;42.662;23.352;2023-02-12T09:24:28;95995.84;;;2.54;60.50
41062;BME280;26812;42.662;23.352;2023-02-12T09:26:54;95999.72;;;2.17;61.81
41062;BME280;26812;42.662;23.352;2023-02-12T09:29:19;95988.16;;;2.12;62.53
41062;BME280;26812;42.662;23.352;2023-02-12T09:31:45;96001.78;;;2.44;62.12
41062;BME280;26812;42.662;23.352;2023-02-12T09:34:10;96009.97;;;2.71;60.78
41062;BME280;26812;42.662;23.352;2023-02-12T09:36:35;95988.41;;;2.39;62.27
41062;BME280;26812;42.662;23.352;2023-02-12T09:39:01;96015.03;;;2.56;61.41
41062;BME280;26812;42.662;23.352;2023-02-12T09:47:13;96006.81;;;2.57;61.27
41062;BME280;26812;42.662;23.352;2023-02-12T09:50:17;96003.94;;;2.59;61.46
41062;BME280;26812;42.662;23.352;2023-02-12T09:52:52;95998.22;;;2.22;62.35
41062;BME280;26812;42.662;23.352;2023-02-12T09:55:19;96012.47;;;2.61;62.35
41062;BME280;26812;42.662;23.352;2023-02-12T09:57:47;96010.41;;;2.79;61.31
41062;BME280;26812;42.662;23.352;2023-02-12T10:00:29;96003.03;;;2.53;60.85
41062;BME280;26812;42.662;23.352;2023-02-12T10:02:59;96021.03;;;2.34;62.13
41062;BME280;26812;42.662;23.352;2023-02-12T10:05:28;96007.97;;;2.33;61.78
41062;BME280;26812;42.662;23.352;2023-02-12T10:11:05;96013.28;;;2.61;62.21
41062;BME280;26812;42.662;23.352;2023-02-12T10:17:06;96016.34;;;3.54;58.94
41062;BME280;26812;42.662;23.352;2023-02-12T10:19:48;96024.16;;;3.60;58.09
41062;BME280;26812;42.662;23.352;2023-02-12T10:22:26;96000.13;;;3.77;57.52
41062;BME280;26812;42.662;23.352;2023-02-12T10:27:39;96017.50;;;4.77;56.06
41062;BME280;26812;42.662;23.352;2023-02-12T10:32:47;96019.38;;;6.50;49.17
41062;BME280;26812;42.662;23.352;2023-02-12T10:35:17;96022.69;;;6.05;50.11
41062;BME280;26812;42.662;23.352;2023-02-12T10:40:27;96005.88;;;4.13;55.48
41062;BME280;26812;42.662;23.352;2023-02-12T10:42:55;95978.47;;;3.95;56.77
41062;BME280;26812;42.662;23.352;2023-02-12T10:45:36;96004.72;;;3.82;56.08
41062;BME280;26812;42.662;23.352;2023-02-12T10:53:03;96000.44;;;4.51;55.34
41062;BME280;26812;42.662;23.352;2023-02-12T10:55:34;96013.63;;;4.36;55.97
41062;BME280;26812;42.662;23.352;2023-02-12T10:58:03;96033.38;;;4.13;56.16
41062;BME280;26812;42.662;23.352;2023-02-12T11:00:36;96014.69;;;4.13;55.99
41062;BME280;26812;42.662;23.352;2023-02-12T11:05:38;96019.78;;;3.71;57.04
41062;BME280;26812;42.662;23.352;2023-02-12T11:08:04;96018.09;;;3.09;59.90
41062;BME280;26812;42.662;23.352;2023-02-12T11:10:39;96019.34;;;3.40;59.92
41062;BME280;26812;42.662;23.352;2023-02-12T11:13:05;96017.25;;;3.64;58.70
41062;BME280;26812;42.662;23.352;2023-02-12T11:15:47;96013.25;;;3.84;58.43
41062;BME280;26812;42.662;23.352;2023-02-12T11:18:23;96018.03;;;4.25;57.43
41062;BME280;26812;42.662;23.352;2023-02-12T11:26:01;95991.81;;;4.71;55.03
41062;BME280;26812;42.662;23.352;2023-02-12T11:28:28;96013.22;;;4.76;55.58
41062;BME280;26812;42.662;23.352;2023-02-12T11:31:20;96008.34;;;4.41;56.28
41062;BME280;26812;42.662;23.352;2023-02-12T11:34:06;96017.09;;;3.93;57.63
41062;BME280;26812;42.662;23.352;2023-02-12T11:36:35;95981.25;;;3.62;58.34
41062;BME280;26812;42.662;23.352;2023-02-12T11:39:01;95999.31;;;3.77;58.32
41062;BME280;26812;42.662;23.352;2023-02-12T11:43:53;96011.03;;;3.76;58.49
41062;BME280;26812;42.662;23.352;2023-02-12T11:46:21;95990.13;;;3.89;57.64
41062;BME280;26812;42.662;23.352;2023-02-12T11:48:47;96012.97;;;4.51;56.16
41062;BME280;26812;42.662;23.352;2023-02-12T11:51:28;96010.91;;;4.58;55.64
41062;BME280;26812;42.662;23.352;2023-02-12T11:53:58;96018.50;;;4.98;55.54
41062;BME280;26812;42.662;23.352;2023-02-12T11:56:40;96020.44;;;5.45;53.90
41062;BME280;26812;42.662;23.352;2023-02-12T11:59:35;96018.84;;;5.07;53.51
41062;BME280;26812;42.662;23.352;2023-02-12T12:04:38;96011.41;;;4.82;54.88
41062;BME280;26812;42.662;23.352;2023-02-12T12:07:33;96023.66;;;4.51;54.91
41062;BME280;26812;42.662;23.352;2023-02-12T12:10:06;96011.81;;;4.95;54.97
41062;BME280;26812;42.662;23.352;2023-02-12T12:12:47;96016.94;;;5.02;54.38
41062;BME280;26812;42.662;23.352;2023-02-12T12:15:21;96020.91;;;5.32;53.55
41062;BME280;26812;42.662;23.352;2023-02-12T12:21:12;96030.41;;;5.17;53.71
41062;BME280;26812;42.662;23.352;2023-02-12T12:24:19;95999.09;;;5.13;53.35
41062;BME280;26812;42.662;23.352;2023-02-12T12:26:49;96013.13;;;5.30;53.50
41062;BME280;26812;42.662;23.352;2023-02-12T12:30:07;96005.88;;;5.20;52.63
41062;BME280;26812;42.662;23.352;2023-02-12T12:32:35;96018.47;;;4.93;54.73
41062;BME280;26812;42.662;23.352;2023-02-12T12:35:03;96019.31;;;4.98;54.28
41062;BME280;26812;42.662;23.352;2023-02-12T12:45:47;96033.72;;;5.72;52.85
41062;BME280;26812;42.662;23.352;2023-02-12T12:51:35;96033.81;;;5.82;51.22
41062;BME280;26812;42.662;23.352;2023-02-12T12:54:24;96041.13;;;5.54;52.19
41062;BME280;26812;42.662;23.352;2023-02-12T13:05:40;96044.63;;;4.42;55.89
41062;BME280;26812;42.662;23.352;2023-02-12T13:14:03;96050.81;;;4.70;55.16
41062;BME280;26812;42.662;23.352;2023-02-12T13:22:46;96052.41;;;4.71;56.18
41062;BME280;26812;42.662;23.352;2023-02-12T13:25:27;96039.75;;;4.34;56.48
41062;BME280;26812;42.662;23.352;2023-02-12T13:27:57;96058.59;;;4.49;57.31
41062;BME280;26812;42.662;23.352;2023-02-12T13:33:11;96062.63;;;4.52;56.14
41062;BME280;26812;42.662;23.352;2023-02-12T13:36:06;96048.69;;;4.23;56.72
41062;BME280;26812;42.662;23.352;2023-02-12T13:38:36;96056.06;;;4.38;56.96
41062;BME280;26812;42.662;23.352;2023-02-12T13:41:06;96014.25;;;4.21;56.54
41062;BME280;26812;42.662;23.352;2023-02-12T13:43:48;96072.78;;;4.55;56.47
41062;BME280;26812;42.662;23.352;2023-02-12T13:46:55;96078.22;;;4.38;56.40
41062;BME280;26812;42.662;23.352;2023-02-12T13:49:29;96068.84;;;4.35;56.64
41062;BME280;26812;42.662;23.352;2023-02-12T13:57:20;96079.66;;;3.85;58.53
41062;BME280;26812;42.662;23.352;2023-02-12T13:59:50;96061.78;;;4.02;58.82
41062;BME280;26812;42.662;23.352;2023-02-12T14:02:52;96082.06;;;4.03;58.60
41062;BME280;26812;42.662;23.352;2023-02-12T14:05:25;96086.41;;;4.10;57.95
41062;BME280;26812;42.662;23.352;2023-02-12T14:07:57;96031.19;;;3.88;58.61
41062;BME280;26812;42.662;23.352;2023-02-12T14:12:58;96072.13;;;3.99;57.10
41062;BME280;26812;42.662;23.352;2023-02-12T14:15:40;96078.63;;;3.86;58.77
41062;BME280;26812;42.662;23.352;2023-02-12T14:18:25;96094.91;;;4.07;58.11
41062;BME280;26812;42.662;23.352;2023-02-12T14:23:39;96090.75;;;4.16;58.01
41062;BME280;26812;42.662;23.352;2023-02-12T14:26:18;96108.06;;;4.35;57.33
41062;BME280;26812;42.662;23.352;2023-02-12T14:33:52;96120.84;;;4.33;57.66
41062;BME280;26812;42.662;23.352;2023-02-12T14:36:39;96112.72;;;4.45;57.57
41062;BME280;26812;42.662;23.352;2023-02-12T14:44:42;96109.78;;;4.24;57.25
41062;BME280;26812;42.662;23.352;2023-02-12T14:49:56;96139.19;;;3.91;58.45
41062;BME280;26812;42.662;23.352;2023-02-12T14:52:27;96134.66;;;4.08;58.03
41062;BME280;26812;42.662;23.352;2023-02-12T14:57:33;96134.66;;;3.91;58.94
41062;BME280;26812;42.662;23.352;2023-02-12T15:02:40;96151.00;;;3.61;59.71
41062;BME280;26812;42.662;23.352;2023-02-12T15:05:19;96151.75;;;3.73;59.57
41062;BME280;26812;42.662;23.352;2023-02-12T15:07:56;96162.22;;;3.97;59.62
41062;BME280;26812;42.662;23.352;2023-02-12T15:10:29;96160.78;;;3.89;58.88
41062;BME280;26812;42.662;23.352;2023-02-12T15:13:15;96170.81;;;3.82;59.22
41062;BME280;26812;42.662;23.352;2023-02-12T15:16:06;96182.19;;;3.94;58.98
41062;BME280;26812;42.662;23.352;2023-02-12T15:18:47;96192.13;;;3.82;59.28
41062;BME280;26812;42.662;23.352;2023-02-12T15:21:24;96199.56;;;3.80;59.79
41062;BME280;26812;42.662;23.352;2023-02-12T15:24:09;96207.41;;;3.70;60.03
41062;BME280;26812;42.662;23.352;2023-02-12T15:26:47;96213.53;;;3.87;59.39
41062;BME280;26812;42.662;23.352;2023-02-12T15:31:53;96219.81;;;3.64;60.13
41062;BME280;26812;42.662;23.352;2023-02-12T15:34:23;96233.13;;;3.64;60.58
41062;BME280;26812;42.662;23.352;2023-02-12T15:36:49;96232.19;;;3.70;59.87
41062;BME280;26812;42.662;23.352;2023-02-12T15:39:20;96239.16;;;3.71;59.99
41062;BME280;26812;42.662;23.352;2023-02-12T15:48:27;96240.69;;;3.84;59.63
41062;BME280;26812;42.662;23.352;2023-02-12T15:51:19;96156.38;;;3.16;60.52
41062;BME280;26812;42.662;23.352;2023-02-12T15:53:47;96168.75;;;3.22;60.60